createdAt,value
2018-02-03T00:01:36.907Z,16.90
2018-02-03T00:04:05.450Z,16.13
2018-02-03T00:06:34.026Z,14.37
2018-02-03T00:09:03.322Z,16.60
2018-02-03T00:11:32.592Z,15.20
2018-02-03T00:14:23.709Z,14.30
2018-02-03T00:16:52.354Z,14.30
2018-02-03T00:19:20.663Z,17.90
2018-02-03T00:21:49.335Z,13.40
2018-02-03T00:24:18.148Z,13.83
2018-02-03T00:26:48.119Z,14.10
2018-02-03T00:29:41.861Z,14.73
2018-02-03T00:32:13.153Z,14.30
2018-02-03T00:34:44.711Z,12.60
2018-02-03T00:37:13.236Z,13.20
2018-02-03T00:39:41.815Z,13.10
2018-02-03T00:42:10.354Z,12.40
2018-02-03T00:47:11.393Z,18.93
2018-02-03T00:49:40.559Z,16.80
2018-02-03T00:52:13.746Z,13.33
2018-02-03T00:54:44.391Z,12.10
2018-02-03T00:57:16.397Z,12.17
2018-02-03T01:00:28.489Z,11.57
2018-02-03T01:03:00.503Z,13.07
2018-02-03T01:05:33.499Z,11.33
2018-02-03T01:08:07.403Z,11.07
2018-02-03T01:10:41.706Z,10.87
2018-02-03T01:13:15.633Z,14.27
2018-02-03T01:15:50.587Z,13.40
2018-02-03T01:18:22.938Z,10.53
2018-02-03T01:20:51.301Z,12.17
2018-02-03T01:23:19.591Z,12.63
2018-02-03T01:25:48.871Z,8.70
2018-02-03T01:28:18.602Z,9.10
2018-02-03T01:30:46.864Z,8.83
2018-02-03T01:33:17.412Z,11.43
2018-02-03T01:35:51.707Z,10.97
2018-02-03T01:38:23.556Z,8.27
2018-02-03T01:40:56.567Z,10.70
2018-02-03T01:43:29.205Z,9.33
2018-02-03T01:45:58.258Z,10.50
2018-02-03T01:48:26.777Z,13.27
2018-02-03T01:50:56.414Z,12.97
2018-02-03T01:53:24.824Z,10.73
2018-02-03T01:55:53.122Z,13.00
2018-02-03T01:58:26.824Z,11.67
2018-02-03T02:01:02.024Z,9.67
2018-02-03T02:03:37.042Z,9.70
2018-02-03T02:06:11.003Z,11.27
2018-02-03T02:08:47.319Z,10.93
2018-02-03T02:11:21.678Z,10.70
2018-02-03T02:13:57.575Z,11.27
2018-02-03T02:17:02.078Z,10.10
2018-02-03T02:19:32.933Z,11.03
2018-02-03T02:22:08.053Z,11.17
2018-02-03T02:24:36.337Z,11.33
2018-02-03T02:27:04.636Z,10.63
2018-02-03T02:29:33.496Z,7.90
2018-02-03T02:32:02.862Z,9.13
2018-02-03T02:34:32.402Z,12.53
2018-02-03T02:37:01.426Z,7.73
2018-02-03T02:39:32.501Z,9.20
2018-02-03T02:42:02.255Z,11.23
2018-02-03T02:44:31.003Z,12.50
2018-02-03T02:46:59.282Z,14.70
2018-02-03T02:49:27.656Z,10.60
2018-02-03T02:51:56.670Z,12.40
2018-02-03T02:54:26.334Z,9.67
2018-02-03T02:56:56.757Z,8.83
2018-02-03T02:59:30.603Z,12.60
2018-02-03T03:02:04.066Z,8.03
2018-02-03T03:04:38.792Z,9.80
2018-02-03T03:07:07.103Z,12.27
2018-02-03T03:09:36.770Z,9.40
2018-02-03T03:12:05.944Z,9.43
2018-02-03T03:14:34.373Z,9.03
2018-02-03T03:17:03.746Z,8.63
2018-02-03T03:19:32.062Z,10.63
2018-02-03T03:22:04.159Z,8.07
2018-02-03T03:24:37.045Z,9.33
2018-02-03T03:27:06.805Z,9.33
2018-02-03T03:29:36.597Z,9.20
2018-02-03T03:32:05.211Z,8.50
2018-02-03T03:34:33.731Z,9.20
2018-02-03T03:37:02.593Z,9.50
2018-02-03T03:39:31.730Z,11.87
2018-02-03T03:42:00.548Z,8.53
2018-02-03T03:44:29.042Z,13.60
2018-02-03T03:47:04.429Z,11.03
2018-02-03T03:49:33.170Z,8.73
2018-02-03T03:52:04.146Z,8.53
2018-02-03T03:54:33.727Z,13.77
2018-02-03T03:57:02.265Z,7.00
2018-02-03T03:59:30.971Z,12.53
2018-02-03T04:01:59.496Z,10.10
2018-02-03T04:04:28.028Z,12.73
2018-02-03T04:06:56.677Z,10.27
2018-02-03T04:09:27.291Z,9.57
2018-02-03T04:11:55.874Z,10.23
2018-02-03T04:14:25.858Z,11.00
2018-02-03T04:16:54.140Z,10.73
2018-02-03T04:19:22.885Z,9.17
2018-02-03T04:21:53.827Z,9.73
2018-02-03T04:24:25.675Z,9.77
2018-02-03T04:26:53.960Z,9.50
2018-02-03T04:29:22.508Z,8.30
2018-02-03T04:31:50.780Z,10.53
2018-02-03T04:34:20.297Z,14.37
2018-02-03T04:36:52.592Z,9.43
2018-02-03T04:39:26.639Z,11.07
2018-02-03T04:41:59.068Z,9.10
2018-02-03T04:44:27.340Z,11.27
2018-02-03T04:46:55.624Z,10.10
2018-02-03T04:49:24.366Z,10.83
2018-02-03T04:51:52.982Z,11.50
2018-02-03T04:54:27.452Z,10.37
2018-02-03T04:57:00.981Z,12.20
2018-02-03T04:59:29.481Z,11.83
2018-02-03T05:01:58.154Z,9.93
2018-02-03T05:04:26.469Z,12.37
2018-02-03T05:06:54.856Z,10.43
2018-02-03T05:09:25.321Z,12.17
2018-02-03T05:11:58.287Z,15.17
2018-02-03T05:14:29.752Z,16.13
2018-02-03T05:16:58.281Z,11.67
2018-02-03T05:19:26.700Z,12.30
2018-02-03T05:21:54.975Z,16.77
2018-02-03T05:24:23.690Z,12.50
2018-02-03T05:26:55.384Z,17.43
2018-02-03T05:29:28.559Z,16.23
2018-02-03T05:32:03.973Z,14.13
2018-02-03T05:37:54.283Z,11.63
2018-02-03T05:40:23.426Z,11.00
2018-02-03T05:42:54.171Z,12.20
2018-02-03T05:45:25.672Z,12.77
2018-02-03T05:48:17.311Z,12.20
2018-02-03T05:50:47.327Z,12.03
2018-02-03T05:53:15.610Z,12.87
2018-02-03T05:55:50.418Z,10.10
2018-02-03T05:58:23.884Z,9.70
2018-02-03T06:00:55.906Z,10.10
2018-02-03T06:06:47.576Z,14.57
2018-02-03T06:09:16.719Z,11.70
2018-02-03T06:11:49.903Z,12.37
2018-02-03T06:14:23.394Z,9.47
2018-02-03T06:16:54.003Z,9.27
2018-02-03T06:19:23.776Z,7.33
2018-02-03T06:21:52.063Z,7.50
2018-02-03T06:24:20.403Z,7.47
2018-02-03T06:26:49.833Z,7.80
2018-02-03T06:29:25.941Z,7.30
2018-02-03T06:31:56.230Z,8.43
2018-02-03T06:34:25.491Z,9.23
2018-02-03T06:36:53.848Z,4.63
2018-02-03T06:39:22.118Z,6.63
2018-02-03T06:41:53.263Z,6.20
2018-02-03T06:44:21.573Z,7.87
2018-02-03T06:46:51.530Z,7.23
2018-02-03T06:49:20.809Z,5.00
2018-02-03T06:51:50.022Z,5.23
2018-02-03T06:54:18.534Z,8.10
2018-02-03T06:56:48.643Z,6.40
2018-02-03T06:59:19.972Z,4.03
2018-02-03T07:01:52.918Z,6.17
2018-02-03T07:04:23.859Z,4.67
2018-02-03T07:06:54.189Z,5.90
2018-02-03T07:09:22.451Z,7.80
2018-02-03T07:11:50.855Z,4.43
2018-02-03T07:14:19.658Z,4.97
2018-02-03T07:16:53.268Z,4.90
2018-02-03T07:19:38.963Z,7.03
2018-02-03T07:22:07.232Z,4.83
2018-02-03T07:24:37.190Z,6.33
2018-02-03T07:27:08.738Z,5.87
2018-02-03T07:29:37.092Z,4.73
2018-02-03T07:32:08.310Z,3.93
2018-02-03T07:34:37.527Z,4.27
2018-02-03T07:37:05.828Z,5.00
2018-02-03T07:39:35.659Z,3.93
2018-02-03T07:42:07.136Z,4.67
2018-02-03T07:44:35.434Z,5.93
2018-02-03T07:47:04.109Z,7.37
2018-02-03T07:49:48.428Z,5.87
2018-02-03T07:52:17.930Z,6.83
2018-02-03T07:54:46.192Z,4.43
2018-02-03T07:57:14.493Z,6.07
2018-02-03T07:59:44.704Z,4.47
2018-02-03T08:02:12.996Z,4.63
2018-02-03T08:05:02.497Z,3.83
2018-02-03T08:07:32.964Z,4.90
2018-02-03T08:10:04.104Z,6.17
2018-02-03T08:12:35.924Z,3.80
2018-02-03T08:15:07.692Z,4.93
2018-02-03T08:20:14.948Z,7.77
2018-02-03T08:22:44.813Z,6.03
2018-02-03T08:25:13.123Z,7.20
2018-02-03T08:27:41.403Z,6.07
2018-02-03T08:30:09.712Z,7.50
2018-02-03T08:32:39.541Z,5.20
2018-02-03T08:35:07.809Z,5.57
2018-02-03T08:38:14.404Z,7.80
2018-02-03T08:40:43.975Z,7.90
2018-02-03T08:43:13.149Z,7.77
2018-02-03T08:45:41.451Z,7.47
2018-02-03T08:48:10.215Z,6.97
2018-02-03T08:50:46.372Z,6.83
2018-02-03T08:53:15.152Z,10.13
2018-02-03T08:55:43.457Z,9.73
2018-02-03T08:58:13.007Z,11.77
2018-02-03T09:00:48.887Z,10.30
2018-02-03T09:03:19.203Z,12.17
2018-02-03T09:05:51.672Z,11.77
2018-02-03T09:08:20.423Z,17.00
2018-02-03T09:10:49.947Z,16.00
2018-02-03T09:13:18.519Z,18.37
2018-02-03T09:15:46.820Z,14.87
2018-02-03T09:18:15.102Z,17.80
2018-02-03T09:20:48.846Z,16.87
2018-02-03T09:23:21.469Z,15.60
2018-02-03T09:25:51.725Z,11.43
2018-02-03T09:28:21.916Z,11.03
2018-02-03T09:30:50.187Z,5.63
2018-02-03T09:33:19.933Z,8.30
2018-02-03T09:35:48.224Z,7.63
2018-02-03T09:38:18.251Z,5.83
2018-02-03T09:40:46.554Z,5.17
2018-02-03T09:43:16.439Z,6.47
2018-02-03T09:45:46.228Z,4.50
2018-02-03T09:48:15.400Z,7.70
2018-02-03T09:50:44.286Z,5.47
2018-02-03T09:53:12.932Z,5.50
2018-02-03T09:55:43.120Z,5.83
2018-02-03T09:58:18.023Z,4.10
2018-02-03T10:00:49.575Z,3.07
2018-02-03T10:03:17.943Z,5.30
2018-02-03T10:05:46.530Z,5.57
2018-02-03T10:08:15.813Z,5.33
2018-02-03T10:10:44.340Z,3.47
2018-02-03T10:13:13.234Z,5.30
2018-02-03T10:15:43.413Z,3.07
2018-02-03T10:18:12.044Z,3.83
2018-02-03T10:20:43.285Z,4.67
2018-02-03T10:23:12.965Z,3.17
2018-02-03T10:25:41.243Z,3.33
2018-02-03T10:28:10.139Z,5.40
2018-02-03T10:30:42.315Z,5.73
2018-02-03T10:33:11.401Z,2.87
2018-02-03T10:35:44.070Z,5.67
2018-02-03T10:38:15.064Z,3.33
2018-02-03T10:40:43.657Z,5.07
2018-02-03T10:43:11.986Z,5.13
2018-02-03T10:45:40.277Z,4.70
2018-02-03T10:48:08.546Z,3.63
2018-02-03T10:50:39.416Z,3.30
2018-02-03T10:53:49.029Z,6.10
2018-02-03T10:56:17.986Z,6.80
2018-02-03T10:58:48.703Z,3.40
2018-02-03T11:01:17.595Z,6.70
2018-02-03T11:03:47.451Z,5.23
2018-02-03T11:06:17.400Z,7.33
2018-02-03T11:09:26.133Z,6.73
2018-02-03T11:11:56.408Z,5.93
2018-02-03T11:14:24.718Z,6.00
2018-02-03T11:16:53.182Z,4.63
2018-02-03T11:19:22.379Z,7.60
2018-02-03T11:21:51.134Z,6.47
2018-02-03T11:24:20.802Z,10.07
2018-02-03T11:26:49.122Z,6.20
2018-02-03T11:29:17.883Z,10.00
2018-02-03T11:31:48.366Z,5.27
2018-02-03T11:34:17.650Z,7.57
2018-02-03T11:36:51.560Z,5.43
2018-02-03T11:39:23.822Z,6.87
2018-02-03T11:41:52.985Z,9.43
2018-02-03T11:44:21.484Z,7.07
2018-02-03T11:46:51.595Z,4.33
2018-02-03T11:49:19.910Z,5.23
2018-02-03T11:51:48.578Z,6.03
2018-02-03T11:54:17.308Z,4.03
2018-02-03T11:56:50.563Z,6.37
2018-02-03T11:59:21.979Z,4.60
2018-02-03T12:01:55.660Z,5.03
2018-02-03T12:04:24.988Z,5.37
2018-02-03T12:06:53.830Z,8.77
2018-02-03T12:09:43.228Z,5.20
2018-02-03T12:12:11.730Z,7.43
2018-02-03T12:14:43.113Z,6.50
2018-02-03T12:17:14.335Z,4.53
2018-02-03T12:19:53.256Z,6.90
2018-02-03T12:22:22.984Z,4.30
2018-02-03T12:25:12.309Z,6.80
2018-02-03T12:27:40.873Z,6.80
2018-02-03T12:30:09.951Z,10.37
2018-02-03T12:32:39.675Z,7.47
2018-02-03T12:35:10.494Z,6.67
2018-02-03T12:37:44.985Z,9.53
2018-02-03T12:40:14.181Z,8.17
2018-02-03T12:42:43.332Z,5.30
2018-02-03T12:45:11.900Z,5.57
2018-02-03T12:47:40.191Z,7.97
2018-02-03T12:50:08.494Z,5.67
2018-02-03T12:52:42.463Z,7.07
2018-02-03T12:55:13.407Z,5.67
2018-02-03T12:57:41.888Z,8.50
2018-02-03T13:00:10.176Z,6.90
2018-02-03T13:02:39.222Z,5.73
2018-02-03T13:05:07.570Z,7.07
2018-02-03T13:07:35.871Z,9.83
2018-02-03T13:10:08.220Z,9.33
2018-02-03T13:12:39.266Z,7.13
2018-02-03T13:15:09.126Z,6.93
2018-02-03T13:17:38.095Z,6.93
2018-02-03T13:20:08.263Z,10.13
2018-02-03T13:22:39.471Z,6.10
2018-02-03T13:25:07.775Z,6.50
2018-02-03T13:27:36.053Z,5.47
2018-02-03T13:30:10.381Z,8.57
2018-02-03T13:32:43.549Z,8.87
2018-02-03T13:35:14.011Z,7.70
2018-02-03T13:37:42.278Z,6.63
2018-02-03T13:40:11.948Z,10.80
2018-02-03T13:42:40.572Z,6.63
2018-02-03T13:45:10.460Z,6.87
2018-02-03T13:47:38.755Z,5.40
2018-02-03T13:50:08.960Z,5.73
2018-02-03T13:52:37.245Z,6.50
2018-02-03T13:55:06.125Z,4.43
2018-02-03T13:57:35.487Z,5.47
2018-02-03T14:00:05.414Z,6.33
2018-02-03T14:02:33.689Z,6.77
2018-02-03T14:05:05.511Z,6.83
2018-02-03T14:07:34.467Z,6.03
2018-02-03T14:10:26.656Z,5.93
2018-02-03T14:12:56.529Z,7.53
2018-02-03T14:15:26.314Z,5.93
2018-02-03T14:17:59.347Z,5.53
2018-02-03T14:20:33.092Z,7.20
2018-02-03T14:23:03.859Z,6.37
2018-02-03T14:25:55.798Z,5.90
2018-02-03T14:28:24.886Z,6.33
2018-02-03T14:30:55.272Z,10.63
2018-02-03T14:33:23.545Z,10.57
2018-02-03T14:35:53.313Z,12.23
2018-02-03T14:38:26.886Z,12.37
2018-02-03T14:40:56.211Z,7.10
2018-02-03T14:43:28.852Z,5.80
2018-02-03T14:45:58.823Z,5.60
2018-02-03T14:48:27.108Z,5.70
2018-02-03T14:50:55.497Z,6.37
2018-02-03T14:53:23.786Z,27.87
2018-02-03T14:55:54.915Z,13.07
2018-02-03T14:58:24.802Z,10.00
2018-02-03T15:00:53.484Z,9.13
2018-02-03T15:03:22.139Z,11.63
2018-02-03T15:05:50.452Z,7.23
2018-02-03T15:08:19.405Z,7.77
2018-02-03T15:10:48.724Z,11.43
2018-02-03T15:13:20.966Z,10.57
2018-02-03T15:15:50.619Z,9.80
2018-02-03T15:18:19.894Z,9.73
2018-02-03T15:20:48.176Z,10.37
2018-02-03T15:23:16.477Z,11.50
2018-02-03T15:25:59.604Z,10.77
2018-02-03T15:28:27.875Z,22.57
2018-02-03T15:30:56.580Z,13.63
2018-02-03T15:33:24.900Z,10.80
2018-02-03T15:35:58.759Z,9.00
2018-02-03T15:38:29.613Z,8.73
2018-02-03T15:41:16.016Z,9.47
2018-02-03T15:43:44.318Z,9.83
2018-02-03T15:46:12.586Z,12.47
2018-02-03T15:48:40.861Z,9.30
2018-02-03T15:51:11.201Z,10.80
2018-02-03T15:53:39.501Z,10.97
2018-02-03T15:56:30.912Z,7.17
2018-02-03T15:59:01.529Z,9.00
2018-02-03T16:01:30.042Z,7.60
2018-02-03T16:03:58.347Z,9.67
2018-02-03T16:06:27.416Z,9.30
2018-02-03T16:08:57.565Z,11.67
2018-02-03T16:11:26.416Z,11.83
2018-02-03T16:13:56.049Z,7.03
2018-02-03T16:16:26.195Z,6.17
2018-02-03T16:18:54.452Z,8.43
2018-02-03T16:21:23.506Z,7.67
2018-02-03T16:23:52.411Z,7.63
2018-02-03T16:26:22.750Z,10.10
2018-02-03T16:28:55.902Z,18.33
2018-02-03T16:31:30.565Z,12.83
2018-02-03T16:33:59.949Z,9.70
2018-02-03T16:36:28.504Z,14.23
2018-02-03T16:38:58.163Z,12.90
2018-02-03T16:41:27.526Z,13.37
2018-02-03T16:43:56.049Z,13.20
2018-02-03T16:46:27.112Z,13.87
2018-02-03T16:48:56.132Z,13.57
2018-02-03T16:51:27.403Z,14.57
2018-02-03T16:53:55.933Z,15.13
2018-02-03T16:56:36.189Z,9.33
2018-02-03T16:59:05.687Z,10.43
2018-02-03T17:01:33.995Z,14.40
2018-02-03T17:04:03.549Z,13.33
2018-02-03T17:06:35.022Z,9.23
2018-02-03T17:09:05.778Z,10.30
2018-02-03T17:11:36.239Z,12.67
2018-02-03T17:14:05.165Z,9.17
2018-02-03T17:16:34.551Z,10.97
2018-02-03T17:19:02.929Z,11.03
2018-02-03T17:21:32.507Z,26.10
2018-02-03T17:24:07.182Z,17.60
2018-02-03T17:26:36.855Z,12.43
2018-02-03T17:29:06.113Z,10.67
2018-02-03T17:31:34.763Z,23.10
2018-02-03T17:34:04.171Z,30.43
2018-02-03T17:36:39.195Z,20.80
2018-02-03T17:39:21.166Z,21.03
2018-02-03T17:41:49.438Z,14.97
2018-02-03T17:44:19.153Z,14.57
2018-02-03T17:47:09.963Z,16.30
2018-02-03T17:49:38.657Z,14.70
2018-02-03T17:52:07.486Z,32.40
2018-02-03T17:54:35.836Z,17.87
2018-02-03T17:57:10.135Z,19.53
2018-02-03T17:59:39.274Z,15.50
2018-02-03T18:02:09.612Z,18.70
2018-02-03T18:04:44.047Z,25.10
2018-02-03T18:07:17.041Z,19.97
2018-02-03T18:09:47.689Z,22.53
2018-02-03T18:12:16.507Z,18.30
2018-02-03T18:14:45.378Z,18.83
2018-02-03T18:17:13.697Z,18.17
2018-02-03T18:19:43.067Z,18.03
2018-02-03T18:22:12.453Z,16.77
2018-02-03T18:24:41.333Z,20.27
2018-02-03T18:27:11.868Z,36.47
2018-02-03T18:29:47.019Z,45.63
2018-02-03T18:32:17.214Z,17.87
2018-02-03T18:34:52.395Z,23.53
2018-02-03T18:37:28.341Z,22.40
2018-02-03T18:39:58.287Z,22.50
2018-02-03T18:42:27.583Z,22.00
2018-02-03T18:44:56.997Z,18.47
2018-02-03T18:47:26.529Z,24.13
2018-02-03T18:49:54.978Z,26.50
2018-02-03T18:52:23.700Z,32.03
2018-02-03T18:54:55.343Z,41.37
2018-02-03T18:57:29.589Z,32.23
2018-02-03T19:00:01.869Z,26.13
2018-02-03T19:02:34.917Z,26.63
2018-02-03T19:05:06.239Z,24.57
2018-02-03T19:07:36.108Z,26.03
2018-02-03T19:10:05.212Z,27.37
2018-02-03T19:12:34.357Z,29.07
2018-02-03T19:15:03.309Z,69.67
2018-02-03T19:17:34.178Z,171.23
2018-02-03T19:20:05.010Z,130.40
2018-02-03T19:22:36.350Z,47.87
2018-02-03T19:25:05.861Z,52.57
2018-02-03T19:27:34.499Z,38.80
2018-02-03T19:30:03.372Z,42.30
2018-02-03T19:32:32.159Z,30.93
2018-02-03T19:35:02.600Z,41.87
2018-02-03T19:37:33.583Z,63.40
2018-02-03T19:40:03.775Z,30.47
2018-02-03T19:42:32.136Z,32.90
2018-02-03T19:45:23.595Z,37.17
2018-02-03T19:47:52.421Z,32.70
2018-02-03T19:50:22.559Z,33.50
2018-02-03T19:52:56.924Z,30.20
2018-02-03T19:55:26.325Z,35.57
2018-02-03T19:57:59.232Z,47.27
2018-02-03T20:00:29.426Z,40.10
2018-02-03T20:02:58.021Z,38.67
2018-02-03T20:05:26.338Z,34.67
2018-02-03T20:07:55.934Z,31.10
2018-02-03T20:10:24.760Z,38.57
2018-02-03T20:12:57.011Z,42.90
2018-02-03T20:15:26.062Z,38.40
2018-02-03T20:17:54.831Z,30.03
2018-02-03T20:20:27.068Z,37.97
2018-02-03T20:22:55.409Z,36.97
2018-02-03T20:25:23.996Z,36.67
2018-02-03T20:27:52.981Z,38.27
2018-02-03T20:31:01.308Z,44.17
2018-02-03T20:33:29.599Z,38.60
2018-02-03T20:36:01.741Z,30.10
2018-02-03T20:38:33.419Z,32.93
2018-02-03T20:41:05.567Z,29.90
2018-02-03T20:43:42.454Z,31.03
2018-02-03T20:46:33.209Z,32.53
2018-02-03T20:49:02.678Z,29.03
2018-02-03T20:51:31.004Z,30.13
2018-02-03T20:54:00.025Z,29.13
2018-02-03T20:56:32.156Z,27.50
2018-02-03T20:59:04.057Z,28.87
2018-02-03T21:01:36.316Z,29.47
2018-02-03T21:04:04.809Z,27.23
2018-02-03T21:06:36.676Z,28.40
2018-02-03T21:09:06.226Z,32.23
2018-02-03T21:11:35.849Z,27.17
2018-02-03T21:14:05.438Z,27.80
2018-02-03T21:16:35.903Z,27.93
2018-02-03T21:19:07.257Z,28.47
2018-02-03T21:21:43.037Z,26.03
2018-02-03T21:24:16.601Z,25.33
2018-02-03T21:26:45.927Z,28.63
2018-02-03T21:29:16.352Z,26.27
2018-02-03T21:31:46.678Z,30.33
2018-02-03T21:34:14.956Z,27.27
2018-02-03T21:36:44.927Z,26.40
2018-02-03T21:39:13.894Z,27.23
2018-02-03T21:41:46.560Z,28.07
2018-02-03T21:44:19.558Z,25.30
2018-02-03T21:47:09.195Z,34.03
2018-02-03T21:49:37.510Z,30.33
2018-02-03T21:52:07.104Z,32.20
2018-02-03T21:54:39.067Z,27.47
2018-02-03T21:57:10.854Z,31.33
2018-02-03T21:59:41.651Z,25.33
2018-02-03T22:02:11.580Z,27.57
2018-02-03T22:04:41.567Z,23.47
2018-02-03T22:07:10.163Z,34.97
2018-02-03T22:09:38.835Z,37.80
2018-02-03T22:12:07.103Z,40.73
2018-02-03T22:14:35.561Z,35.50
2018-02-03T22:17:24.784Z,30.10
2018-02-03T22:19:54.087Z,26.00
2018-02-03T22:22:22.969Z,27.67
2018-02-03T22:24:52.887Z,27.07
2018-02-03T22:27:25.443Z,36.13
2018-02-03T22:29:58.243Z,25.63
2018-02-03T22:32:32.116Z,32.77
2018-02-03T22:35:00.637Z,24.57
2018-02-03T22:37:29.811Z,27.70
2018-02-03T22:39:59.107Z,27.30
2018-02-03T22:42:27.402Z,26.90
2018-02-03T22:44:55.983Z,23.73
2018-02-03T22:47:45.294Z,34.57
2018-02-03T22:50:14.715Z,28.57
2018-02-03T22:52:44.518Z,29.77
2018-02-03T22:55:13.251Z,26.47
2018-02-03T22:57:41.792Z,26.47
2018-02-03T23:00:11.210Z,25.33
2018-02-03T23:02:46.726Z,29.63
2018-02-03T23:05:22.125Z,33.70
2018-02-03T23:07:57.171Z,33.77
2018-02-03T23:10:30.672Z,28.43
2018-02-03T23:13:00.651Z,29.00
2018-02-03T23:15:37.450Z,26.70
2018-02-03T23:18:12.126Z,25.67
2018-02-03T23:20:46.189Z,25.10
2018-02-03T23:23:19.524Z,25.63
2018-02-03T23:25:53.155Z,27.93
2018-02-03T23:28:24.663Z,24.53
2018-02-03T23:30:58.168Z,22.27
2018-02-03T23:33:27.866Z,18.80
2018-02-03T23:35:57.847Z,22.37
2018-02-03T23:38:26.826Z,20.47
2018-02-03T23:40:55.233Z,17.40
2018-02-03T23:43:23.547Z,18.87
2018-02-03T23:45:59.629Z,19.07
2018-02-03T23:48:29.681Z,21.93
2018-02-03T23:51:05.664Z,18.87
2018-02-03T23:53:38.903Z,19.53
2018-02-03T23:56:09.293Z,20.37
2018-02-03T23:58:38.145Z,18.13
